sensor_id;sensor_type;location;lat;lon;timestamp;temperature;humidity
16243;DHT22;11719;51.052;6.982;2023-06-22T00:02:18;23.40;99.90
16243;DHT22;11719;51.052;6.982;2023-06-22T00:04:44;23.40;99.90
16243;DHT22;11719;51.052;6.982;2023-06-22T00:07:10;23.40;99.90
16243;DHT22;11719;51.052;6.982;2023-06-22T00:09:36;23.30;99.90
16243;DHT22;11719;51.052;6.982;2023-06-22T00:12:02;23.30;99.90
16243;DHT22;11719;51.052;6.982;2023-06-22T00:14:29;23.40;99.90
16243;DHT22;11719;51.052;6.982;2023-06-22T00:16:54;23.30;99.90
16243;DHT22;11719;51.052;6.982;2023-06-22T00:19:22;23.30;99.90
16243;DHT22;11719;51.052;6.982;2023-06-22T00:21:51;23.30;99.90
16243;DHT22;11719;51.052;6.982;2023-06-22T00:24:20;23.30;99.90
16243;DHT22;11719;51.052;6.982;2023-06-22T00:26:47;23.30;99.90
16243;DHT22;11719;51.052;6.982;2023-06-22T00:29:13;23.30;99.90
16243;DHT22;11719;51.052;6.982;2023-06-22T00:31:39;23.30;99.90
16243;DHT22;11719;51.052;6.982;2023-06-22T00:34:05;23.30;99.90
16243;DHT22;11719;51.052;6.982;2023-06-22T00:36:32;23.30;99.90
16243;DHT22;11719;51.052;6.982;2023-06-22T00:38:57;23.20;99.90
16243;DHT22;11719;51.052;6.982;2023-06-22T00:41:24;23.30;99.90
16243;DHT22;11719;51.052;6.982;2023-06-22T00:43:49;23.30;99.90
16243;DHT22;11719;51.052;6.982;2023-06-22T00:46:15;23.30;99.90
16243;DHT22;11719;51.052;6.982;2023-06-22T00:48:41;23.30;99.90
16243;DHT22;11719;51.052;6.982;2023-06-22T00:51:10;23.30;99.90
16243;DHT22;11719;51.052;6.982;2023-06-22T00:53:36;23.30;99.90
16243;DHT22;11719;51.052;6.982;2023-06-22T00:56:03;23.20;99.90
16243;DHT22;11719;51.052;6.982;2023-06-22T00:58:31;23.20;99.90
16243;DHT22;11719;51.052;6.982;2023-06-22T01:00:57;23.30;99.90
16243;DHT22;11719;51.052;6.982;2023-06-22T01:03:23;23.20;99.90
16243;DHT22;11719;51.052;6.982;2023-06-22T01:05:49;23.20;99.90
16243;DHT22;11719;51.052;6.982;2023-06-22T01:11:20;23.20;99.90
16243;DHT22;11719;51.052;6.982;2023-06-22T01:16:44;23.20;99.90
16243;DHT22;11719;51.052;6.982;2023-06-22T01:19:35;23.20;99.90
16243;DHT22;11719;51.052;6.982;2023-06-22T01:22:23;23.20;99.90
16243;DHT22;11719;51.052;6.982;2023-06-22T01:27:59;23.20;99.90
16243;DHT22;11719;51.052;6.982;2023-06-22T01:30:31;23.20;99.90
16243;DHT22;11719;51.052;6.982;2023-06-22T01:33:00;23.20;99.90
16243;DHT22;11719;51.052;6.982;2023-06-22T01:35:27;23.20;99.90
16243;DHT22;11719;51.052;6.982;2023-06-22T01:37:54;23.10;99.90
16243;DHT22;11719;51.052;6.982;2023-06-22T01:40:21;23.10;99.90
16243;DHT22;11719;51.052;6.982;2023-06-22T01:42:48;23.10;99.90
16243;DHT22;11719;51.052;6.982;2023-06-22T01:45:14;23.10;99.90
16243;DHT22;11719;51.052;6.982;2023-06-22T01:47:41;23.10;99.90
16243;DHT22;11719;51.052;6.982;2023-06-22T01:50:07;23.20;99.90
16243;DHT22;11719;51.052;6.982;2023-06-22T01:52:34;23.10;99.90
16243;DHT22;11719;51.052;6.982;2023-06-22T01:55:00;23.10;99.90
16243;DHT22;11719;51.052;6.982;2023-06-22T01:57:27;23.10;99.90
16243;DHT22;11719;51.052;6.982;2023-06-22T02:00:04;23.10;99.90
16243;DHT22;11719;51.052;6.982;2023-06-22T02:02:44;23.10;99.90
16243;DHT22;11719;51.052;6.982;2023-06-22T02:05:17;23.10;99.90
16243;DHT22;11719;51.052;6.982;2023-06-22T02:08:07;23.10;99.90
16243;DHT22;11719;51.052;6.982;2023-06-22T02:10:36;23.10;99.90
16243;DHT22;11719;51.052;6.982;2023-06-22T02:13:06;23.10;99.90
16243;DHT22;11719;51.052;6.982;2023-06-22T02:15:33;23.10;99.90
16243;DHT22;11719;51.052;6.982;2023-06-22T02:18:00;23.10;99.90
16243;DHT22;11719;51.052;6.982;2023-06-22T02:20:26;23.10;99.90
16243;DHT22;11719;51.052;6.982;2023-06-22T02:22:51;23.10;99.90
16243;DHT22;11719;51.052;6.982;2023-06-22T02:25:17;23.10;99.90
16243;DHT22;11719;51.052;6.982;2023-06-22T02:27:44;23.10;99.90
16243;DHT22;11719;51.052;6.982;2023-06-22T02:30:10;23.10;99.90
16243;DHT22;11719;51.052;6.982;2023-06-22T02:32:37;23.10;99.90
16243;DHT22;11719;51.052;6.982;2023-06-22T02:35:07;23.10;99.90
16243;DHT22;11719;51.052;6.982;2023-06-22T02:37:35;23.00;99.90
16243;DHT22;11719;51.052;6.982;2023-06-22T02:40:07;23.10;99.90
16243;DHT22;11719;51.052;6.982;2023-06-22T02:42:35;23.00;99.90
16243;DHT22;11719;51.052;6.982;2023-06-22T02:45:02;23.00;99.90
16243;DHT22;11719;51.052;6.982;2023-06-22T02:47:28;23.00;99.90
16243;DHT22;11719;51.052;6.982;2023-06-22T02:49:54;23.00;99.90
16243;DHT22;11719;51.052;6.982;2023-06-22T02:52:20;23.00;99.90
16243;DHT22;11719;51.052;6.982;2023-06-22T02:54:46;23.00;99.90
16243;DHT22;11719;51.052;6.982;2023-06-22T02:57:12;23.00;99.90
16243;DHT22;11719;51.052;6.982;2023-06-22T02:59:39;23.00;99.90
16243;DHT22;11719;51.052;6.982;2023-06-22T03:02:07;23.00;99.90
16243;DHT22;11719;51.052;6.982;2023-06-22T03:04:34;23.00;99.90
16243;DHT22;11719;51.052;6.982;2023-06-22T03:07:01;23.00;99.90
16243;DHT22;11719;51.052;6.982;2023-06-22T03:09:27;23.00;99.90
16243;DHT22;11719;51.052;6.982;2023-06-22T03:11:54;22.90;99.90
16243;DHT22;11719;51.052;6.982;2023-06-22T03:14:20;22.90;99.90
16243;DHT22;11719;51.052;6.982;2023-06-22T03:16:46;22.90;99.90
16243;DHT22;11719;51.052;6.982;2023-06-22T03:19:12;22.90;99.90
16243;DHT22;11719;51.052;6.982;2023-06-22T03:21:39;22.90;99.90
16243;DHT22;11719;51.052;6.982;2023-06-22T03:24:06;22.90;99.90
16243;DHT22;11719;51.052;6.982;2023-06-22T03:26:32;22.90;99.90
16243;DHT22;11719;51.052;6.982;2023-06-22T03:28:59;22.90;99.90
16243;DHT22;11719;51.052;6.982;2023-06-22T03:31:25;22.90;99.90
16243;DHT22;11719;51.052;6.982;2023-06-22T03:33:51;22.90;99.90
16243;DHT22;11719;51.052;6.982;2023-06-22T03:36:18;22.90;99.90
16243;DHT22;11719;51.052;6.982;2023-06-22T03:38:49;22.90;99.90
16243;DHT22;11719;51.052;6.982;2023-06-22T03:41:17;22.90;99.90
16243;DHT22;11719;51.052;6.982;2023-06-22T03:43:43;22.90;99.90
16243;DHT22;11719;51.052;6.982;2023-06-22T03:46:08;22.90;99.90
16243;DHT22;11719;51.052;6.982;2023-06-22T03:48:34;22.90;99.90
16243;DHT22;11719;51.052;6.982;2023-06-22T03:51:01;22.90;99.90
16243;DHT22;11719;51.052;6.982;2023-06-22T03:53:29;22.90;99.90
16243;DHT22;11719;51.052;6.982;2023-06-22T03:55:55;22.90;99.90
16243;DHT22;11719;51.052;6.982;2023-06-22T03:58:21;22.90;99.90
16243;DHT22;11719;51.052;6.982;2023-06-22T04:00:48;22.90;99.90
16243;DHT22;11719;51.052;6.982;2023-06-22T04:03:15;22.90;99.90
16243;DHT22;11719;51.052;6.982;2023-06-22T04:05:41;22.90;99.90
16243;DHT22;11719;51.052;6.982;2023-06-22T04:08:07;22.90;99.90
16243;DHT22;11719;51.052;6.982;2023-06-22T04:10:34;23.00;99.90
16243;DHT22;11719;51.052;6.982;2023-06-22T04:13:00;23.00;99.90
16243;DHT22;11719;51.052;6.982;2023-06-22T04:15:26;23.00;99.90
16243;DHT22;11719;51.052;6.982;2023-06-22T04:17:54;23.00;99.90
16243;DHT22;11719;51.052;6.982;2023-06-22T04:20:21;23.00;99.90
16243;DHT22;11719;51.052;6.982;2023-06-22T04:22:47;23.00;99.90
16243;DHT22;11719;51.052;6.982;2023-06-22T04:25:13;23.00;99.90
16243;DHT22;11719;51.052;6.982;2023-06-22T04:27:39;23.00;99.90
16243;DHT22;11719;51.052;6.982;2023-06-22T04:30:07;23.00;99.90
16243;DHT22;11719;51.052;6.982;2023-06-22T04:32:34;23.00;99.90
16243;DHT22;11719;51.052;6.982;2023-06-22T04:35:05;23.10;99.90
16243;DHT22;11719;51.052;6.982;2023-06-22T04:37:32;23.10;99.90
16243;DHT22;11719;51.052;6.982;2023-06-22T04:39:58;23.00;99.90
16243;DHT22;11719;51.052;6.982;2023-06-22T04:42:27;23.00;99.90
16243;DHT22;11719;51.052;6.982;2023-06-22T04:44:53;23.00;99.90
16243;DHT22;11719;51.052;6.982;2023-06-22T04:47:19;23.00;99.90
16243;DHT22;11719;51.052;6.982;2023-06-22T04:49:45;23.00;99.90
16243;DHT22;11719;51.052;6.982;2023-06-22T04:54:46;23.00;99.90
16243;DHT22;11719;51.052;6.982;2023-06-22T04:57:20;23.00;99.90
16243;DHT22;11719;51.052;6.982;2023-06-22T04:59:50;23.00;99.90
16243;DHT22;11719;51.052;6.982;2023-06-22T05:02:16;23.00;99.90
16243;DHT22;11719;51.052;6.982;2023-06-22T05:04:41;23.00;99.90
16243;DHT22;11719;51.052;6.982;2023-06-22T05:07:07;23.00;99.90
16243;DHT22;11719;51.052;6.982;2023-06-22T05:09:33;23.00;99.90
16243;DHT22;11719;51.052;6.982;2023-06-22T05:12:02;23.00;99.90
16243;DHT22;11719;51.052;6.982;2023-06-22T05:14:30;23.00;99.90
16243;DHT22;11719;51.052;6.982;2023-06-22T05:16:56;23.00;99.90
16243;DHT22;11719;51.052;6.982;2023-06-22T05:19:24;23.10;99.90
16243;DHT22;11719;51.052;6.982;2023-06-22T05:21:50;23.10;99.90
16243;DHT22;11719;51.052;6.982;2023-06-22T05:24:16;23.10;99.90
16243;DHT22;11719;51.052;6.982;2023-06-22T05:26:42;23.10;99.90
16243;DHT22;11719;51.052;6.982;2023-06-22T05:29:08;23.10;99.90
16243;DHT22;11719;51.052;6.982;2023-06-22T05:31:33;23.10;99.90
16243;DHT22;11719;51.052;6.982;2023-06-22T05:33:59;23.10;99.90
16243;DHT22;11719;51.052;6.982;2023-06-22T05:36:26;23.10;99.90
16243;DHT22;11719;51.052;6.982;2023-06-22T05:38:52;23.10;99.90
16243;DHT22;11719;51.052;6.982;2023-06-22T05:41:18;23.10;99.90
16243;DHT22;11719;51.052;6.982;2023-06-22T05:43:44;23.10;99.90
16243;DHT22;11719;51.052;6.982;2023-06-22T05:46:10;23.10;99.90
16243;DHT22;11719;51.052;6.982;2023-06-22T05:48:36;23.10;99.90
16243;DHT22;11719;51.052;6.982;2023-06-22T05:51:02;23.10;99.90
16243;DHT22;11719;51.052;6.982;2023-06-22T05:53:28;23.10;99.90
16243;DHT22;11719;51.052;6.982;2023-06-22T05:55:54;23.10;99.90
16243;DHT22;11719;51.052;6.982;2023-06-22T05:58:19;23.10;99.90
16243;DHT22;11719;51.052;6.982;2023-06-22T06:00:45;23.10;99.90
16243;DHT22;11719;51.052;6.982;2023-06-22T06:03:12;23.10;99.90
16243;DHT22;11719;51.052;6.982;2023-06-22T06:05:42;23.20;99.90
16243;DHT22;11719;51.052;6.982;2023-06-22T06:08:08;23.20;99.90
16243;DHT22;11719;51.052;6.982;2023-06-22T06:10:36;23.20;99.90
16243;DHT22;11719;51.052;6.982;2023-06-22T06:13:02;23.20;99.90
16243;DHT22;11719;51.052;6.982;2023-06-22T06:15:30;23.20;99.90
16243;DHT22;11719;51.052;6.982;2023-06-22T06:17:56;23.20;99.90
16243;DHT22;11719;51.052;6.982;2023-06-22T06:20:23;23.20;99.90
16243;DHT22;11719;51.052;6.982;2023-06-22T06:22:50;23.20;99.90
16243;DHT22;11719;51.052;6.982;2023-06-22T06:25:16;23.20;99.90
16243;DHT22;11719;51.052;6.982;2023-06-22T06:27:43;23.30;99.90
16243;DHT22;11719;51.052;6.982;2023-06-22T06:30:10;23.30;99.90
16243;DHT22;11719;51.052;6.982;2023-06-22T06:32:36;23.30;99.90
16243;DHT22;11719;51.052;6.982;2023-06-22T06:35:05;23.30;99.90
16243;DHT22;11719;51.052;6.982;2023-06-22T06:37:31;23.40;99.90
16243;DHT22;11719;51.052;6.982;2023-06-22T06:39:58;23.40;99.90
16243;DHT22;11719;51.052;6.982;2023-06-22T06:42:24;23.40;99.90
16243;DHT22;11719;51.052;6.982;2023-06-22T06:44:50;23.40;99.90
16243;DHT22;11719;51.052;6.982;2023-06-22T06:47:16;23.40;99.90
16243;DHT22;11719;51.052;6.982;2023-06-22T06:49:42;23.50;99.90
16243;DHT22;11719;51.052;6.982;2023-06-22T06:52:08;23.50;99.90
16243;DHT22;11719;51.052;6.982;2023-06-22T06:54:34;23.50;99.90
16243;DHT22;11719;51.052;6.982;2023-06-22T06:57:00;23.50;99.90
16243;DHT22;11719;51.052;6.982;2023-06-22T06:59:25;23.50;99.90
16243;DHT22;11719;51.052;6.982;2023-06-22T07:01:51;23.50;99.90
16243;DHT22;11719;51.052;6.982;2023-06-22T07:04:17;23.50;99.90
16243;DHT22;11719;51.052;6.982;2023-06-22T07:06:43;23.50;99.90
16243;DHT22;11719;51.052;6.982;2023-06-22T07:09:09;23.50;99.90
16243;DHT22;11719;51.052;6.982;2023-06-22T07:11:34;23.60;99.90
16243;DHT22;11719;51.052;6.982;2023-06-22T07:14:01;23.60;99.90
16243;DHT22;11719;51.052;6.982;2023-06-22T07:16:27;23.70;99.90
16243;DHT22;11719;51.052;6.982;2023-06-22T07:18:54;23.70;99.90
16243;DHT22;11719;51.052;6.982;2023-06-22T07:21:20;23.60;99.90
16243;DHT22;11719;51.052;6.982;2023-06-22T07:23:45;23.50;99.90
16243;DHT22;11719;51.052;6.982;2023-06-22T07:26:11;23.60;99.90
16243;DHT22;11719;51.052;6.982;2023-06-22T07:28:38;23.40;99.90
16243;DHT22;11719;51.052;6.982;2023-06-22T07:31:06;23.40;99.90
16243;DHT22;11719;51.052;6.982;2023-06-22T07:33:32;23.30;99.90
16243;DHT22;11719;51.052;6.982;2023-06-22T07:35:58;23.40;99.90
16243;DHT22;11719;51.052;6.982;2023-06-22T07:38:24;23.50;99.90
16243;DHT22;11719;51.052;6.982;2023-06-22T07:40:50;23.60;99.90
16243;DHT22;11719;51.052;6.982;2023-06-22T07:43:16;23.50;99.90
16243;DHT22;11719;51.052;6.982;2023-06-22T07:45:48;23.40;99.90
16243;DHT22;11719;51.052;6.982;2023-06-22T07:48:21;23.30;99.90
16243;DHT22;11719;51.052;6.982;2023-06-22T07:50:48;23.20;99.90
16243;DHT22;11719;51.052;6.982;2023-06-22T07:53:14;23.20;99.90
16243;DHT22;11719;51.052;6.982;2023-06-22T07:55:40;23.20;99.90
16243;DHT22;11719;51.052;6.982;2023-06-22T07:58:06;23.20;99.90
16243;DHT22;11719;51.052;6.982;2023-06-22T08:00:33;23.00;99.90
16243;DHT22;11719;51.052;6.982;2023-06-22T08:02:59;23.00;99.90
16243;DHT22;11719;51.052;6.982;2023-06-22T08:05:25;23.00;99.90
16243;DHT22;11719;51.052;6.982;2023-06-22T08:07:51;23.10;99.90
16243;DHT22;11719;51.052;6.982;2023-06-22T08:10:19;23.10;99.90
16243;DHT22;11719;51.052;6.982;2023-06-22T08:12:45;23.10;99.90
16243;DHT22;11719;51.052;6.982;2023-06-22T08:15:10;23.00;99.90
16243;DHT22;11719;51.052;6.982;2023-06-22T08:17:37;23.00;99.90
16243;DHT22;11719;51.052;6.982;2023-06-22T08:20:04;23.00;99.90
16243;DHT22;11719;51.052;6.982;2023-06-22T08:22:40;22.90;99.90
16243;DHT22;11719;51.052;6.982;2023-06-22T08:25:07;22.80;99.90
16243;DHT22;11719;51.052;6.982;2023-06-22T08:27:33;22.80;99.90
16243;DHT22;11719;51.052;6.982;2023-06-22T08:29:59;22.90;99.90
16243;DHT22;11719;51.052;6.982;2023-06-22T08:32:29;23.00;99.90
16243;DHT22;11719;51.052;6.982;2023-06-22T08:34:56;23.00;99.90
16243;DHT22;11719;51.052;6.982;2023-06-22T08:37:22;23.00;99.90
16243;DHT22;11719;51.052;6.982;2023-06-22T08:39:58;23.10;99.90
16243;DHT22;11719;51.052;6.982;2023-06-22T08:42:24;23.00;99.90
16243;DHT22;11719;51.052;6.982;2023-06-22T08:44:51;23.00;99.90
16243;DHT22;11719;51.052;6.982;2023-06-22T08:47:17;23.00;99.90
16243;DHT22;11719;51.052;6.982;2023-06-22T08:49:42;23.00;99.90
16243;DHT22;11719;51.052;6.982;2023-06-22T08:52:08;23.00;99.90
16243;DHT22;11719;51.052;6.982;2023-06-22T08:54:34;23.00;99.90
16243;DHT22;11719;51.052;6.982;2023-06-22T08:57:01;23.00;99.90
16243;DHT22;11719;51.052;6.982;2023-06-22T08:59:27;23.00;99.90
16243;DHT22;11719;51.052;6.982;2023-06-22T09:01:53;23.00;99.90
16243;DHT22;11719;51.052;6.982;2023-06-22T09:04:19;23.00;99.90
16243;DHT22;11719;51.052;6.982;2023-06-22T09:06:47;22.90;99.90
16243;DHT22;11719;51.052;6.982;2023-06-22T09:09:16;22.90;99.90
16243;DHT22;11719;51.052;6.982;2023-06-22T09:11:42;22.90;99.90
16243;DHT22;11719;51.052;6.982;2023-06-22T09:14:09;22.90;99.90
16243;DHT22;11719;51.052;6.982;2023-06-22T09:16:35;23.00;99.90
16243;DHT22;11719;51.052;6.982;2023-06-22T09:19:00;23.00;99.90
16243;DHT22;11719;51.052;6.982;2023-06-22T09:21:26;22.90;99.90
16243;DHT22;11719;51.052;6.982;2023-06-22T09:23:52;22.90;99.90
16243;DHT22;11719;51.052;6.982;2023-06-22T09:26:18;22.90;99.90
16243;DHT22;11719;51.052;6.982;2023-06-22T09:28:45;22.90;99.90
16243;DHT22;11719;51.052;6.982;2023-06-22T09:31:11;22.80;99.90
16243;DHT22;11719;51.052;6.982;2023-06-22T09:33:37;22.90;99.90
16243;DHT22;11719;51.052;6.982;2023-06-22T09:36:05;22.90;99.90
16243;DHT22;11719;51.052;6.982;2023-06-22T09:38:37;23.00;99.90
16243;DHT22;11719;51.052;6.982;2023-06-22T09:41:04;23.00;99.90
16243;DHT22;11719;51.052;6.982;2023-06-22T09:43:32;22.90;99.90
16243;DHT22;11719;51.052;6.982;2023-06-22T09:46:00;22.90;99.90
16243;DHT22;11719;51.052;6.982;2023-06-22T09:48:28;22.80;99.90
16243;DHT22;11719;51.052;6.982;2023-06-22T09:50:55;22.70;99.90
16243;DHT22;11719;51.052;6.982;2023-06-22T09:53:21;22.80;99.90
16243;DHT22;11719;51.052;6.982;2023-06-22T09:55:47;22.80;99.90
16243;DHT22;11719;51.052;6.982;2023-06-22T09:58:13;22.90;99.90
16243;DHT22;11719;51.052;6.982;2023-06-22T10:00:39;23.00;99.90
16243;DHT22;11719;51.052;6.982;2023-06-22T10:03:07;23.00;99.90
16243;DHT22;11719;51.052;6.982;2023-06-22T10:05:33;22.90;99.90
16243;DHT22;11719;51.052;6.982;2023-06-22T10:07:59;23.00;99.90
16243;DHT22;11719;51.052;6.982;2023-06-22T10:10:25;23.00;99.90
16243;DHT22;11719;51.052;6.982;2023-06-22T10:13:02;23.00;99.90
16243;DHT22;11719;51.052;6.982;2023-06-22T10:15:32;23.00;99.90
16243;DHT22;11719;51.052;6.982;2023-06-22T10:17:58;23.00;99.90
16243;DHT22;11719;51.052;6.982;2023-06-22T10:20:24;22.60;99.90
16243;DHT22;11719;51.052;6.982;2023-06-22T10:22:51;22.60;99.90
16243;DHT22;11719;51.052;6.982;2023-06-22T10:25:17;22.80;99.90
16243;DHT22;11719;51.052;6.982;2023-06-22T10:27:42;23.00;99.90
16243;DHT22;11719;51.052;6.982;2023-06-22T10:30:09;23.00;99.90
16243;DHT22;11719;51.052;6.982;2023-06-22T10:32:38;23.00;99.90
16243;DHT22;11719;51.052;6.982;2023-06-22T10:35:05;23.10;99.90
16243;DHT22;11719;51.052;6.982;2023-06-22T10:37:31;23.40;99.90
16243;DHT22;11719;51.052;6.982;2023-06-22T10:39:57;23.50;99.90
16243;DHT22;11719;51.052;6.982;2023-06-22T10:42:24;23.50;99.90
16243;DHT22;11719;51.052;6.982;2023-06-22T10:44:49;23.60;99.90
16243;DHT22;11719;51.052;6.982;2023-06-22T10:47:15;23.60;99.90
16243;DHT22;11719;51.052;6.982;2023-06-22T10:49:41;23.60;99.90
16243;DHT22;11719;51.052;6.982;2023-06-22T10:52:08;23.60;99.90
16243;DHT22;11719;51.052;6.982;2023-06-22T10:54:35;23.70;99.90
16243;DHT22;11719;51.052;6.982;2023-06-22T10:57:02;23.70;99.90
16243;DHT22;11719;51.052;6.982;2023-06-22T10:59:28;23.70;99.90
16243;DHT22;11719;51.052;6.982;2023-06-22T11:01:58;23.80;99.90
16243;DHT22;11719;51.052;6.982;2023-06-22T11:04:24;23.80;99.90
16243;DHT22;11719;51.052;6.982;2023-06-22T11:06:50;23.80;99.90
16243;DHT22;11719;51.052;6.982;2023-06-22T11:09:17;23.70;99.90
16243;DHT22;11719;51.052;6.982;2023-06-22T11:11:44;23.70;99.90
16243;DHT22;11719;51.052;6.982;2023-06-22T11:14:10;23.70;99.90
16243;DHT22;11719;51.052;6.982;2023-06-22T11:16:36;23.70;99.90
16243;DHT22;11719;51.052;6.982;2023-06-22T11:19:05;23.60;99.90
16243;DHT22;11719;51.052;6.982;2023-06-22T11:21:31;23.60;99.90
16243;DHT22;11719;51.052;6.982;2023-06-22T11:23:58;23.60;99.90
16243;DHT22;11719;51.052;6.982;2023-06-22T11:26:24;23.40;99.90
16243;DHT22;11719;51.052;6.982;2023-06-22T11:28:53;23.30;99.90
16243;DHT22;11719;51.052;6.982;2023-06-22T11:31:19;23.30;99.90
16243;DHT22;11719;51.052;6.982;2023-06-22T11:33:44;23.30;99.90
16243;DHT22;11719;51.052;6.982;2023-06-22T11:36:12;23.50;99.90
16243;DHT22;11719;51.052;6.982;2023-06-22T11:38:38;23.60;99.90
16243;DHT22;11719;51.052;6.982;2023-06-22T11:41:06;23.50;99.90
16243;DHT22;11719;51.052;6.982;2023-06-22T11:43:32;23.40;99.90
16243;DHT22;11719;51.052;6.982;2023-06-22T11:45:57;23.40;99.90
16243;DHT22;11719;51.052;6.982;2023-06-22T11:48:26;23.40;99.90
16243;DHT22;11719;51.052;6.982;2023-06-22T11:50:52;23.30;99.90
16243;DHT22;11719;51.052;6.982;2023-06-22T11:53:20;23.20;99.90
16243;DHT22;11719;51.052;6.982;2023-06-22T11:55:49;23.20;99.90
16243;DHT22;11719;51.052;6.982;2023-06-22T11:58:16;23.10;99.90
16243;DHT22;11719;51.052;6.982;2023-06-22T12:00:42;23.20;99.90
16243;DHT22;11719;51.052;6.982;2023-06-22T12:03:08;23.20;99.90
16243;DHT22;11719;51.052;6.982;2023-06-22T12:05:34;23.30;99.90
16243;DHT22;11719;51.052;6.982;2023-06-22T12:08:00;23.20;99.90
16243;DHT22;11719;51.052;6.982;2023-06-22T12:10:26;23.20;99.90
16243;DHT22;11719;51.052;6.982;2023-06-22T12:12:55;23.30;99.90
16243;DHT22;11719;51.052;6.982;2023-06-22T12:15:23;23.30;99.90
16243;DHT22;11719;51.052;6.982;2023-06-22T12:17:49;23.30;99.90
16243;DHT22;11719;51.052;6.982;2023-06-22T12:20:15;23.40;99.90
16243;DHT22;11719;51.052;6.982;2023-06-22T12:22:41;23.50;99.90
16243;DHT22;11719;51.052;6.982;2023-06-22T12:25:08;23.50;99.90
16243;DHT22;11719;51.052;6.982;2023-06-22T12:27:35;23.40;99.90
16243;DHT22;11719;51.052;6.982;2023-06-22T12:30:01;23.40;99.90
16243;DHT22;11719;51.052;6.982;2023-06-22T12:32:28;23.20;99.90
16243;DHT22;11719;51.052;6.982;2023-06-22T12:34:54;23.20;99.90
16243;DHT22;11719;51.052;6.982;2023-06-22T12:37:21;23.20;99.90
16243;DHT22;11719;51.052;6.982;2023-06-22T12:39:46;23.20;99.90
16243;DHT22;11719;51.052;6.982;2023-06-22T12:42:12;23.20;99.90
16243;DHT22;11719;51.052;6.982;2023-06-22T12:44:39;23.20;99.90
16243;DHT22;11719;51.052;6.982;2023-06-22T12:47:05;23.20;99.90
16243;DHT22;11719;51.052;6.982;2023-06-22T12:49:31;23.20;99.90
16243;DHT22;11719;51.052;6.982;2023-06-22T12:51:57;23.20;99.90
16243;DHT22;11719;51.052;6.982;2023-06-22T12:54:23;23.20;99.90
16243;DHT22;11719;51.052;6.982;2023-06-22T12:56:50;23.10;99.90
16243;DHT22;11719;51.052;6.982;2023-06-22T12:59:16;23.10;99.90
16243;DHT22;11719;51.052;6.982;2023-06-22T13:01:45;23.10;99.90
16243;DHT22;11719;51.052;6.982;2023-06-22T13:04:14;23.10;99.90
16243;DHT22;11719;51.052;6.982;2023-06-22T13:06:46;23.10;99.90
16243;DHT22;11719;51.052;6.982;2023-06-22T13:09:14;23.20;99.90
16243;DHT22;11719;51.052;6.982;2023-06-22T13:11:41;23.30;99.90
16243;DHT22;11719;51.052;6.982;2023-06-22T13:14:07;23.30;99.90
16243;DHT22;11719;51.052;6.982;2023-06-22T13:16:33;23.30;99.90
16243;DHT22;11719;51.052;6.982;2023-06-22T13:18:59;23.20;99.90
16243;DHT22;11719;51.052;6.982;2023-06-22T13:21:25;23.30;99.90
16243;DHT22;11719;51.052;6.982;2023-06-22T13:23:51;23.20;99.90
16243;DHT22;11719;51.052;6.982;2023-06-22T13:26:16;23.10;99.90
16243;DHT22;11719;51.052;6.982;2023-06-22T13:28:42;23.00;99.90
16243;DHT22;11719;51.052;6.982;2023-06-22T13:31:08;23.00;99.90
16243;DHT22;11719;51.052;6.982;2023-06-22T13:33:34;23.00;99.90
16243;DHT22;11719;51.052;6.982;2023-06-22T13:35:59;23.00;99.90
16243;DHT22;11719;51.052;6.982;2023-06-22T13:38:25;22.90;99.90
16243;DHT22;11719;51.052;6.982;2023-06-22T13:40:51;22.90;99.90
16243;DHT22;11719;51.052;6.982;2023-06-22T13:43:17;22.90;99.90
16243;DHT22;11719;51.052;6.982;2023-06-22T13:45:43;22.90;99.90
16243;DHT22;11719;51.052;6.982;2023-06-22T13:48:09;22.80;99.90
16243;DHT22;11719;51.052;6.982;2023-06-22T13:50:35;22.90;99.90
16243;DHT22;11719;51.052;6.982;2023-06-22T13:53:01;23.00;99.90
16243;DHT22;11719;51.052;6.982;2023-06-22T13:55:27;23.10;99.90
16243;DHT22;11719;51.052;6.982;2023-06-22T13:57:53;23.10;99.90
16243;DHT22;11719;51.052;6.982;2023-06-22T14:00:19;23.20;99.90
16243;DHT22;11719;51.052;6.982;2023-06-22T14:02:45;23.10;99.90
16243;DHT22;11719;51.052;6.982;2023-06-22T14:05:11;23.10;99.90
16243;DHT22;11719;51.052;6.982;2023-06-22T14:07:37;23.30;99.90
16243;DHT22;11719;51.052;6.982;2023-06-22T14:10:04;23.30;99.90
16243;DHT22;11719;51.052;6.982;2023-06-22T14:12:30;23.20;99.90
16243;DHT22;11719;51.052;6.982;2023-06-22T14:14:55;23.20;99.90
16243;DHT22;11719;51.052;6.982;2023-06-22T14:17:22;23.40;99.90
16243;DHT22;11719;51.052;6.982;2023-06-22T14:19:51;23.30;99.90
16243;DHT22;11719;51.052;6.982;2023-06-22T14:22:22;23.40;99.90
16243;DHT22;11719;51.052;6.982;2023-06-22T14:24:48;23.30;99.90
16243;DHT22;11719;51.052;6.982;2023-06-22T14:27:15;23.30;99.90
16243;DHT22;11719;51.052;6.982;2023-06-22T14:29:41;23.40;99.90
16243;DHT22;11719;51.052;6.982;2023-06-22T14:32:08;23.40;99.90
16243;DHT22;11719;51.052;6.982;2023-06-22T14:34:34;23.40;99.90
16243;DHT22;11719;51.052;6.982;2023-06-22T14:37:02;23.50;99.90
16243;DHT22;11719;51.052;6.982;2023-06-22T14:39:28;23.60;99.90
16243;DHT22;11719;51.052;6.982;2023-06-22T14:41:54;23.50;99.90
16243;DHT22;11719;51.052;6.982;2023-06-22T14:44:20;23.60;99.90
16243;DHT22;11719;51.052;6.982;2023-06-22T14:46:45;23.50;99.90
16243;DHT22;11719;51.052;6.982;2023-06-22T14:49:11;23.50;99.90
16243;DHT22;11719;51.052;6.982;2023-06-22T14:51:37;23.40;99.90
16243;DHT22;11719;51.052;6.982;2023-06-22T14:54:03;23.30;99.90
16243;DHT22;11719;51.052;6.982;2023-06-22T14:56:28;23.40;99.90
16243;DHT22;11719;51.052;6.982;2023-06-22T14:58:55;23.50;99.90
16243;DHT22;11719;51.052;6.982;2023-06-22T15:01:21;23.40;99.90
16243;DHT22;11719;51.052;6.982;2023-06-22T15:03:47;23.50;99.90
16243;DHT22;11719;51.052;6.982;2023-06-22T15:06:12;23.40;99.90
16243;DHT22;11719;51.052;6.982;2023-06-22T15:08:40;23.40;99.90
16243;DHT22;11719;51.052;6.982;2023-06-22T15:11:06;23.30;99.90
16243;DHT22;11719;51.052;6.982;2023-06-22T15:13:33;23.30;99.90
16243;DHT22;11719;51.052;6.982;2023-06-22T15:16:03;23.10;99.90
16243;DHT22;11719;51.052;6.982;2023-06-22T15:18:29;22.90;99.90
16243;DHT22;11719;51.052;6.982;2023-06-22T15:20:55;22.70;99.90
16243;DHT22;11719;51.052;6.982;2023-06-22T15:23:21;22.70;99.90
16243;DHT22;11719;51.052;6.982;2023-06-22T15:25:47;22.70;99.90
16243;DHT22;11719;51.052;6.982;2023-06-22T15:28:13;22.70;99.90
16243;DHT22;11719;51.052;6.982;2023-06-22T15:30:39;22.70;99.90
16243;DHT22;11719;51.052;6.982;2023-06-22T15:33:05;22.70;99.90
16243;DHT22;11719;51.052;6.982;2023-06-22T15:35:30;22.60;99.90
16243;DHT22;11719;51.052;6.982;2023-06-22T15:37:56;22.70;99.90
16243;DHT22;11719;51.052;6.982;2023-06-22T15:40:22;22.70;99.90